sensor_id;sensor_type;location;lat;lon;timestamp;P1;durP1;ratioP1;P2;durP2;ratioP2
35612;SDS011;22054;51.646;7.078;2022-07-26T00:01:25;6.72;;;6.20;;
35612;SDS011;22054;51.646;7.078;2022-07-26T00:03:51;7.10;;;6.20;;
35612;SDS011;22054;51.646;7.078;2022-07-26T00:06:17;6.72;;;6.13;;
35612;SDS011;22054;51.646;7.078;2022-07-26T00:08:43;6.78;;;6.18;;
35612;SDS011;22054;51.646;7.078;2022-07-26T00:11:08;7.72;;;6.45;;
35612;SDS011;22054;51.646;7.078;2022-07-26T00:13:34;9.07;;;6.40;;
35612;SDS011;22054;51.646;7.078;2022-07-26T00:16:00;7.32;;;6.15;;
35612;SDS011;22054;51.646;7.078;2022-07-26T00:18:26;7.07;;;6.38;;
35612;SDS011;22054;51.646;7.078;2022-07-26T00:20:52;9.75;;;6.20;;
35612;SDS011;22054;51.646;7.078;2022-07-26T00:23:37;7.15;;;6.45;;
35612;SDS011;22054;51.646;7.078;2022-07-26T00:26:22;10.80;;;6.32;;
35612;SDS011;22054;51.646;7.078;2022-07-26T00:29:06;7.03;;;6.47;;
35612;SDS011;22054;51.646;7.078;2022-07-26T00:31:32;10.45;;;6.20;;
35612;SDS011;22054;51.646;7.078;2022-07-26T00:33:57;7.60;;;6.90;;
35612;SDS011;22054;51.646;7.078;2022-07-26T00:36:23;10.25;;;6.47;;
35612;SDS011;22054;51.646;7.078;2022-07-26T00:38:49;9.43;;;6.50;;
35612;SDS011;22054;51.646;7.078;2022-07-26T00:41:15;6.82;;;6.20;;
35612;SDS011;22054;51.646;7.078;2022-07-26T00:43:54;7.82;;;7.10;;
35612;SDS011;22054;51.646;7.078;2022-07-26T00:46:21;8.15;;;6.60;;
35612;SDS011;22054;51.646;7.078;2022-07-26T00:48:47;7.07;;;6.50;;
35612;SDS011;22054;51.646;7.078;2022-07-26T00:51:13;7.97;;;6.70;;
35612;SDS011;22054;51.646;7.078;2022-07-26T00:53:39;6.90;;;6.32;;
35612;SDS011;22054;51.646;7.078;2022-07-26T00:56:04;8.50;;;7.68;;
35612;SDS011;22054;51.646;7.078;2022-07-26T00:58:30;7.80;;;7.13;;
35612;SDS011;22054;51.646;7.078;2022-07-26T01:00:56;8.38;;;6.78;;
35612;SDS011;22054;51.646;7.078;2022-07-26T01:03:21;7.65;;;6.95;;
35612;SDS011;22054;51.646;7.078;2022-07-26T01:05:47;7.05;;;6.40;;
35612;SDS011;22054;51.646;7.078;2022-07-26T01:08:14;7.88;;;7.05;;
35612;SDS011;22054;51.646;7.078;2022-07-26T01:10:40;7.68;;;6.97;;
35612;SDS011;22054;51.646;7.078;2022-07-26T01:13:07;8.65;;;7.18;;
35612;SDS011;22054;51.646;7.078;2022-07-26T01:15:33;7.82;;;7.00;;
35612;SDS011;22054;51.646;7.078;2022-07-26T01:17:59;9.23;;;6.80;;
35612;SDS011;22054;51.646;7.078;2022-07-26T01:20:24;7.30;;;6.70;;
35612;SDS011;22054;51.646;7.078;2022-07-26T01:22:50;7.28;;;6.53;;
35612;SDS011;22054;51.646;7.078;2022-07-26T01:25:16;7.85;;;7.22;;
35612;SDS011;22054;51.646;7.078;2022-07-26T01:27:54;7.15;;;6.55;;
35612;SDS011;22054;51.646;7.078;2022-07-26T01:30:20;7.53;;;6.78;;
35612;SDS011;22054;51.646;7.078;2022-07-26T01:32:46;7.22;;;6.57;;
35612;SDS011;22054;51.646;7.078;2022-07-26T01:35:11;7.70;;;6.70;;
35612;SDS011;22054;51.646;7.078;2022-07-26T01:37:37;7.00;;;6.50;;
35612;SDS011;22054;51.646;7.078;2022-07-26T01:40:03;7.95;;;6.30;;
35612;SDS011;22054;51.646;7.078;2022-07-26T01:42:29;7.35;;;6.30;;
35612;SDS011;22054;51.646;7.078;2022-07-26T01:44:55;6.72;;;6.22;;
35612;SDS011;22054;51.646;7.078;2022-07-26T01:47:21;9.93;;;6.43;;
35612;SDS011;22054;51.646;7.078;2022-07-26T01:49:47;7.07;;;6.38;;
35612;SDS011;22054;51.646;7.078;2022-07-26T01:52:12;7.53;;;6.68;;
35612;SDS011;22054;51.646;7.078;2022-07-26T01:54:38;8.07;;;6.47;;
35612;SDS011;22054;51.646;7.078;2022-07-26T01:57:04;7.82;;;7.00;;
35612;SDS011;22054;51.646;7.078;2022-07-26T01:59:30;6.53;;;5.93;;
35612;SDS011;22054;51.646;7.078;2022-07-26T02:01:55;7.72;;;6.90;;
35612;SDS011;22054;51.646;7.078;2022-07-26T02:04:21;7.35;;;6.65;;
35612;SDS011;22054;51.646;7.078;2022-07-26T02:07:05;7.47;;;6.80;;
35612;SDS011;22054;51.646;7.078;2022-07-26T02:09:31;10.07;;;6.85;;
35612;SDS011;22054;51.646;7.078;2022-07-26T02:11:57;18.33;;;7.35;;
35612;SDS011;22054;51.646;7.078;2022-07-26T02:14:22;8.00;;;7.05;;
35612;SDS011;22054;51.646;7.078;2022-07-26T02:16:48;12.23;;;7.13;;
35612;SDS011;22054;51.646;7.078;2022-07-26T02:19:15;8.73;;;7.18;;
35612;SDS011;22054;51.646;7.078;2022-07-26T02:21:40;8.70;;;7.07;;
35612;SDS011;22054;51.646;7.078;2022-07-26T02:24:06;8.52;;;7.68;;
35612;SDS011;22054;51.646;7.078;2022-07-26T02:26:32;7.68;;;6.90;;
35612;SDS011;22054;51.646;7.078;2022-07-26T02:28:58;8.70;;;7.50;;
35612;SDS011;22054;51.646;7.078;2022-07-26T02:31:23;15.07;;;7.05;;
35612;SDS011;22054;51.646;7.078;2022-07-26T02:33:49;7.47;;;6.90;;
35612;SDS011;22054;51.646;7.078;2022-07-26T02:36:15;10.10;;;7.43;;
35612;SDS011;22054;51.646;7.078;2022-07-26T02:38:40;8.35;;;7.55;;
35612;SDS011;22054;51.646;7.078;2022-07-26T02:41:06;10.50;;;6.97;;
35612;SDS011;22054;51.646;7.078;2022-07-26T02:43:32;10.27;;;7.32;;
35612;SDS011;22054;51.646;7.078;2022-07-26T02:45:57;7.90;;;7.30;;
35612;SDS011;22054;51.646;7.078;2022-07-26T02:48:23;9.65;;;7.85;;
35612;SDS011;22054;51.646;7.078;2022-07-26T02:50:49;13.88;;;7.63;;
35612;SDS011;22054;51.646;7.078;2022-07-26T02:53:15;8.45;;;7.82;;
35612;SDS011;22054;51.646;7.078;2022-07-26T02:55:40;9.23;;;7.80;;
35612;SDS011;22054;51.646;7.078;2022-07-26T02:58:06;13.60;;;7.70;;
35612;SDS011;22054;51.646;7.078;2022-07-26T03:00:32;8.88;;;7.90;;
35612;SDS011;22054;51.646;7.078;2022-07-26T03:02:57;11.25;;;7.90;;
35612;SDS011;22054;51.646;7.078;2022-07-26T03:05:24;16.98;;;7.95;;
35612;SDS011;22054;51.646;7.078;2022-07-26T03:07:50;9.02;;;7.88;;
35612;SDS011;22054;51.646;7.078;2022-07-26T03:10:16;9.95;;;8.70;;
35612;SDS011;22054;51.646;7.078;2022-07-26T03:12:42;14.70;;;8.13;;
35612;SDS011;22054;51.646;7.078;2022-07-26T03:15:08;11.27;;;8.38;;
35612;SDS011;22054;51.646;7.078;2022-07-26T03:17:34;10.13;;;7.80;;
35612;SDS011;22054;51.646;7.078;2022-07-26T03:20:00;17.38;;;9.32;;
35612;SDS011;22054;51.646;7.078;2022-07-26T03:22:26;11.45;;;8.70;;
35612;SDS011;22054;51.646;7.078;2022-07-26T03:24:52;10.75;;;8.50;;
35612;SDS011;22054;51.646;7.078;2022-07-26T03:27:18;14.13;;;8.25;;
35612;SDS011;22054;51.646;7.078;2022-07-26T03:29:43;13.45;;;9.00;;
35612;SDS011;22054;51.646;7.078;2022-07-26T03:32:09;10.05;;;8.38;;
35612;SDS011;22054;51.646;7.078;2022-07-26T03:34:35;12.90;;;8.23;;
35612;SDS011;22054;51.646;7.078;2022-07-26T03:37:01;12.70;;;8.02;;
35612;SDS011;22054;51.646;7.078;2022-07-26T03:39:27;11.57;;;7.82;;
35612;SDS011;22054;51.646;7.078;2022-07-26T03:41:53;15.43;;;8.75;;
35612;SDS011;22054;51.646;7.078;2022-07-26T03:44:18;16.48;;;8.20;;
35612;SDS011;22054;51.646;7.078;2022-07-26T03:46:44;14.93;;;12.23;;
35612;SDS011;22054;51.646;7.078;2022-07-26T03:49:10;15.32;;;12.82;;
35612;SDS011;22054;51.646;7.078;2022-07-26T03:51:35;16.10;;;12.13;;
35612;SDS011;22054;51.646;7.078;2022-07-26T03:54:01;14.80;;;12.15;;
35612;SDS011;22054;51.646;7.078;2022-07-26T03:56:27;15.70;;;12.60;;
35612;SDS011;22054;51.646;7.078;2022-07-26T03:58:53;16.02;;;12.00;;
35612;SDS011;22054;51.646;7.078;2022-07-26T04:01:19;15.02;;;12.23;;
35612;SDS011;22054;51.646;7.078;2022-07-26T04:03:46;16.80;;;12.20;;
35612;SDS011;22054;51.646;7.078;2022-07-26T04:06:11;16.90;;;12.88;;
35612;SDS011;22054;51.646;7.078;2022-07-26T04:08:38;14.45;;;13.02;;
35612;SDS011;22054;51.646;7.078;2022-07-26T04:11:04;16.90;;;12.43;;
35612;SDS011;22054;51.646;7.078;2022-07-26T04:13:30;14.05;;;11.68;;
35612;SDS011;22054;51.646;7.078;2022-07-26T04:15:56;18.23;;;12.00;;
35612;SDS011;22054;51.646;7.078;2022-07-26T04:18:39;16.17;;;12.65;;
35612;SDS011;22054;51.646;7.078;2022-07-26T04:21:06;14.30;;;13.02;;
35612;SDS011;22054;51.646;7.078;2022-07-26T04:23:32;16.85;;;13.20;;
35612;SDS011;22054;51.646;7.078;2022-07-26T04:25:58;17.50;;;13.25;;
35612;SDS011;22054;51.646;7.078;2022-07-26T04:28:23;14.85;;;13.45;;
35612;SDS011;22054;51.646;7.078;2022-07-26T04:30:52;15.80;;;12.53;;
35612;SDS011;22054;51.646;7.078;2022-07-26T04:33:19;16.05;;;13.50;;
35612;SDS011;22054;51.646;7.078;2022-07-26T04:35:45;15.13;;;13.65;;
35612;SDS011;22054;51.646;7.078;2022-07-26T04:38:11;16.98;;;13.23;;
35612;SDS011;22054;51.646;7.078;2022-07-26T04:40:37;16.67;;;13.02;;
35612;SDS011;22054;51.646;7.078;2022-07-26T04:43:03;16.35;;;13.07;;
35612;SDS011;22054;51.646;7.078;2022-07-26T04:45:29;17.30;;;12.65;;
35612;SDS011;22054;51.646;7.078;2022-07-26T04:47:55;13.63;;;12.27;;
35612;SDS011;22054;51.646;7.078;2022-07-26T04:50:21;15.52;;;11.88;;
35612;SDS011;22054;51.646;7.078;2022-07-26T04:52:49;14.68;;;10.90;;
35612;SDS011;22054;51.646;7.078;2022-07-26T04:55:16;18.85;;;11.25;;
35612;SDS011;22054;51.646;7.078;2022-07-26T04:57:42;17.67;;;10.98;;
35612;SDS011;22054;51.646;7.078;2022-07-26T05:00:10;12.43;;;10.18;;
35612;SDS011;22054;51.646;7.078;2022-07-26T05:02:38;14.00;;;10.80;;
35612;SDS011;22054;51.646;7.078;2022-07-26T05:05:04;21.50;;;11.43;;
35612;SDS011;22054;51.646;7.078;2022-07-26T05:07:40;16.80;;;10.85;;
35612;SDS011;22054;51.646;7.078;2022-07-26T05:10:12;11.10;;;10.00;;
35612;SDS011;22054;51.646;7.078;2022-07-26T05:12:39;13.55;;;10.02;;
35612;SDS011;22054;51.646;7.078;2022-07-26T05:15:05;14.32;;;9.57;;
35612;SDS011;22054;51.646;7.078;2022-07-26T05:17:31;12.13;;;10.05;;
35612;SDS011;22054;51.646;7.078;2022-07-26T05:19:57;20.08;;;10.23;;
35612;SDS011;22054;51.646;7.078;2022-07-26T05:22:23;17.42;;;9.43;;
35612;SDS011;22054;51.646;7.078;2022-07-26T05:24:49;22.88;;;10.30;;
35612;SDS011;22054;51.646;7.078;2022-07-26T05:27:15;11.77;;;9.65;;
35612;SDS011;22054;51.646;7.078;2022-07-26T05:29:41;13.55;;;9.80;;
35612;SDS011;22054;51.646;7.078;2022-07-26T05:32:06;17.30;;;10.07;;
35612;SDS011;22054;51.646;7.078;2022-07-26T05:34:32;16.63;;;9.70;;
35612;SDS011;22054;51.646;7.078;2022-07-26T05:36:57;14.88;;;9.43;;
35612;SDS011;22054;51.646;7.078;2022-07-26T05:39:23;16.70;;;9.27;;
35612;SDS011;22054;51.646;7.078;2022-07-26T05:41:49;15.50;;;9.10;;
35612;SDS011;22054;51.646;7.078;2022-07-26T05:44:15;13.10;;;9.10;;
35612;SDS011;22054;51.646;7.078;2022-07-26T05:46:40;19.20;;;9.60;;
35612;SDS011;22054;51.646;7.078;2022-07-26T05:49:06;16.52;;;8.95;;
35612;SDS011;22054;51.646;7.078;2022-07-26T05:51:32;19.70;;;9.50;;
35612;SDS011;22054;51.646;7.078;2022-07-26T05:53:58;13.85;;;9.50;;
35612;SDS011;22054;51.646;7.078;2022-07-26T05:56:24;13.02;;;9.02;;
35612;SDS011;22054;51.646;7.078;2022-07-26T05:58:50;19.88;;;9.88;;
35612;SDS011;22054;51.646;7.078;2022-07-26T06:01:16;17.13;;;10.20;;
35612;SDS011;22054;51.646;7.078;2022-07-26T06:03:41;19.42;;;9.93;;
35612;SDS011;22054;51.646;7.078;2022-07-26T06:06:07;17.40;;;10.05;;
35612;SDS011;22054;51.646;7.078;2022-07-26T06:08:33;20.55;;;9.93;;
35612;SDS011;22054;51.646;7.078;2022-07-26T06:11:00;14.82;;;9.57;;
35612;SDS011;22054;51.646;7.078;2022-07-26T06:13:25;24.58;;;10.90;;
35612;SDS011;22054;51.646;7.078;2022-07-26T06:15:51;20.05;;;10.20;;
35612;SDS011;22054;51.646;7.078;2022-07-26T06:18:17;18.17;;;10.73;;
35612;SDS011;22054;51.646;7.078;2022-07-26T06:20:44;18.48;;;10.48;;
35612;SDS011;22054;51.646;7.078;2022-07-26T06:23:11;16.23;;;10.07;;
35612;SDS011;22054;51.646;7.078;2022-07-26T06:25:37;20.75;;;10.13;;
35612;SDS011;22054;51.646;7.078;2022-07-26T06:28:04;14.75;;;10.70;;
35612;SDS011;22054;51.646;7.078;2022-07-26T06:30:35;15.77;;;10.20;;
35612;SDS011;22054;51.646;7.078;2022-07-26T06:33:02;17.17;;;10.60;;
35612;SDS011;22054;51.646;7.078;2022-07-26T06:35:28;18.17;;;9.68;;
35612;SDS011;22054;51.646;7.078;2022-07-26T06:37:56;13.65;;;9.90;;
35612;SDS011;22054;51.646;7.078;2022-07-26T06:40:23;20.52;;;10.80;;
35612;SDS011;22054;51.646;7.078;2022-07-26T06:42:50;16.77;;;9.98;;
35612;SDS011;22054;51.646;7.078;2022-07-26T06:45:16;13.35;;;9.13;;
35612;SDS011;22054;51.646;7.078;2022-07-26T06:47:42;12.40;;;9.32;;
35612;SDS011;22054;51.646;7.078;2022-07-26T06:50:08;14.20;;;8.82;;
35612;SDS011;22054;51.646;7.078;2022-07-26T06:52:34;13.68;;;9.88;;
35612;SDS011;22054;51.646;7.078;2022-07-26T06:55:00;20.40;;;9.68;;
35612;SDS011;22054;51.646;7.078;2022-07-26T06:57:26;12.90;;;9.55;;
35612;SDS011;22054;51.646;7.078;2022-07-26T06:59:52;19.88;;;10.82;;
35612;SDS011;22054;51.646;7.078;2022-07-26T07:02:19;17.65;;;10.88;;
35612;SDS011;22054;51.646;7.078;2022-07-26T07:04:44;16.15;;;11.07;;
35612;SDS011;22054;51.646;7.078;2022-07-26T07:07:10;19.95;;;11.90;;
35612;SDS011;22054;51.646;7.078;2022-07-26T07:09:36;16.80;;;11.00;;
35612;SDS011;22054;51.646;7.078;2022-07-26T07:12:03;18.55;;;10.45;;
35612;SDS011;22054;51.646;7.078;2022-07-26T07:14:30;20.63;;;11.45;;
35612;SDS011;22054;51.646;7.078;2022-07-26T07:16:56;22.55;;;11.05;;
35612;SDS011;22054;51.646;7.078;2022-07-26T07:19:23;14.80;;;10.43;;
35612;SDS011;22054;51.646;7.078;2022-07-26T07:21:49;21.05;;;11.30;;
35612;SDS011;22054;51.646;7.078;2022-07-26T07:24:15;19.55;;;11.70;;
35612;SDS011;22054;51.646;7.078;2022-07-26T07:26:41;14.95;;;10.50;;
35612;SDS011;22054;51.646;7.078;2022-07-26T07:29:08;18.52;;;10.05;;
35612;SDS011;22054;51.646;7.078;2022-07-26T07:31:36;13.05;;;9.52;;
35612;SDS011;22054;51.646;7.078;2022-07-26T07:34:02;18.70;;;11.13;;
35612;SDS011;22054;51.646;7.078;2022-07-26T07:36:28;14.48;;;9.95;;
35612;SDS011;22054;51.646;7.078;2022-07-26T07:38:54;19.90;;;10.80;;
35612;SDS011;22054;51.646;7.078;2022-07-26T07:41:20;15.80;;;11.00;;
35612;SDS011;22054;51.646;7.078;2022-07-26T07:43:45;13.43;;;8.98;;
35612;SDS011;22054;51.646;7.078;2022-07-26T07:46:11;12.20;;;8.65;;
35612;SDS011;22054;51.646;7.078;2022-07-26T07:48:37;12.82;;;9.20;;
35612;SDS011;22054;51.646;7.078;2022-07-26T07:51:05;15.85;;;9.15;;
35612;SDS011;22054;51.646;7.078;2022-07-26T07:53:34;18.45;;;9.80;;
35612;SDS011;22054;51.646;7.078;2022-07-26T07:56:00;13.88;;;9.68;;
35612;SDS011;22054;51.646;7.078;2022-07-26T07:58:26;12.10;;;8.75;;
35612;SDS011;22054;51.646;7.078;2022-07-26T08:00:52;10.60;;;8.80;;
35612;SDS011;22054;51.646;7.078;2022-07-26T08:03:18;10.88;;;8.30;;
35612;SDS011;22054;51.646;7.078;2022-07-26T08:05:44;13.88;;;8.70;;
35612;SDS011;22054;51.646;7.078;2022-07-26T08:08:12;13.82;;;8.00;;
35612;SDS011;22054;51.646;7.078;2022-07-26T08:10:37;15.95;;;8.98;;
35612;SDS011;22054;51.646;7.078;2022-07-26T08:13:03;16.75;;;9.43;;
35612;SDS011;22054;51.646;7.078;2022-07-26T08:15:29;9.88;;;8.82;;
35612;SDS011;22054;51.646;7.078;2022-07-26T08:17:54;10.25;;;8.10;;
35612;SDS011;22054;51.646;7.078;2022-07-26T08:20:20;13.77;;;8.75;;
35612;SDS011;22054;51.646;7.078;2022-07-26T08:22:47;10.80;;;8.18;;
35612;SDS011;22054;51.646;7.078;2022-07-26T08:25:12;8.73;;;7.15;;
35612;SDS011;22054;51.646;7.078;2022-07-26T08:27:38;13.57;;;8.73;;
35612;SDS011;22054;51.646;7.078;2022-07-26T08:30:04;10.82;;;7.38;;
35612;SDS011;22054;51.646;7.078;2022-07-26T08:32:31;10.38;;;7.05;;
35612;SDS011;22054;51.646;7.078;2022-07-26T08:34:57;8.93;;;7.07;;
35612;SDS011;22054;51.646;7.078;2022-07-26T08:37:22;8.52;;;6.72;;
35612;SDS011;22054;51.646;7.078;2022-07-26T08:39:48;7.72;;;6.95;;
35612;SDS011;22054;51.646;7.078;2022-07-26T08:42:14;7.75;;;6.63;;
35612;SDS011;22054;51.646;7.078;2022-07-26T08:44:43;11.03;;;7.20;;
35612;SDS011;22054;51.646;7.078;2022-07-26T08:47:11;7.53;;;6.72;;
35612;SDS011;22054;51.646;7.078;2022-07-26T08:49:39;8.95;;;7.82;;
35612;SDS011;22054;51.646;7.078;2022-07-26T08:52:05;8.35;;;7.47;;
35612;SDS011;22054;51.646;7.078;2022-07-26T08:54:32;8.95;;;7.82;;
35612;SDS011;22054;51.646;7.078;2022-07-26T08:56:59;9.23;;;8.23;;
35612;SDS011;22054;51.646;7.078;2022-07-26T08:59:34;7.55;;;6.80;;
35612;SDS011;22054;51.646;7.078;2022-07-26T09:02:00;8.80;;;6.75;;
35612;SDS011;22054;51.646;7.078;2022-07-26T09:04:30;6.93;;;6.15;;
35612;SDS011;22054;51.646;7.078;2022-07-26T09:09:38;9.38;;;6.07;;
35612;SDS011;22054;51.646;7.078;2022-07-26T09:12:20;7.32;;;6.05;;
35612;SDS011;22054;51.646;7.078;2022-07-26T09:14:47;9.00;;;6.82;;
35612;SDS011;22054;51.646;7.078;2022-07-26T09:17:15;6.93;;;6.22;;
35612;SDS011;22054;51.646;7.078;2022-07-26T09:19:45;9.80;;;6.35;;
35612;SDS011;22054;51.646;7.078;2022-07-26T09:22:33;6.97;;;6.45;;
35612;SDS011;22054;51.646;7.078;2022-07-26T09:25:00;6.90;;;6.25;;
35612;SDS011;22054;51.646;7.078;2022-07-26T09:27:32;6.95;;;6.18;;
35612;SDS011;22054;51.646;7.078;2022-07-26T09:30:06;6.63;;;6.00;;
35612;SDS011;22054;51.646;7.078;2022-07-26T09:32:33;6.55;;;5.50;;
35612;SDS011;22054;51.646;7.078;2022-07-26T09:40:08;5.90;;;5.00;;
35612;SDS011;22054;51.646;7.078;2022-07-26T09:42:37;8.18;;;5.22;;
35612;SDS011;22054;51.646;7.078;2022-07-26T09:45:29;9.00;;;5.32;;
35612;SDS011;22054;51.646;7.078;2022-07-26T09:47:57;5.17;;;4.87;;
35612;SDS011;22054;51.646;7.078;2022-07-26T09:50:25;7.38;;;6.50;;
35612;SDS011;22054;51.646;7.078;2022-07-26T09:52:56;7.18;;;5.40;;
35612;SDS011;22054;51.646;7.078;2022-07-26T09:55:33;16.17;;;6.13;;
35612;SDS011;22054;51.646;7.078;2022-07-26T09:58:01;11.63;;;6.00;;
35612;SDS011;22054;51.646;7.078;2022-07-26T10:00:29;5.35;;;4.90;;
35612;SDS011;22054;51.646;7.078;2022-07-26T10:02:55;8.38;;;5.13;;
35612;SDS011;22054;51.646;7.078;2022-07-26T10:05:20;9.52;;;5.97;;
35612;SDS011;22054;51.646;7.078;2022-07-26T10:07:50;9.15;;;7.68;;
35612;SDS011;22054;51.646;7.078;2022-07-26T10:10:18;9.13;;;8.43;;
35612;SDS011;22054;51.646;7.078;2022-07-26T10:12:51;9.30;;;8.50;;
35612;SDS011;22054;51.646;7.078;2022-07-26T10:23:52;8.43;;;7.95;;
35612;SDS011;22054;51.646;7.078;2022-07-26T10:31:43;8.68;;;8.00;;
35612;SDS011;22054;51.646;7.078;2022-07-26T10:37:06;9.00;;;7.10;;
35612;SDS011;22054;51.646;7.078;2022-07-26T10:39:34;6.97;;;6.25;;
35612;SDS011;22054;51.646;7.078;2022-07-26T10:42:05;7.00;;;6.30;;
35612;SDS011;22054;51.646;7.078;2022-07-26T10:44:34;6.75;;;6.22;;
35612;SDS011;22054;51.646;7.078;2022-07-26T10:47:14;7.05;;;6.40;;
35612;SDS011;22054;51.646;7.078;2022-07-26T10:49:44;6.25;;;5.72;;
35612;SDS011;22054;51.646;7.078;2022-07-26T10:52:25;6.47;;;5.78;;
35612;SDS011;22054;51.646;7.078;2022-07-26T11:00:06;5.97;;;5.65;;
35612;SDS011;22054;51.646;7.078;2022-07-26T11:03:02;7.13;;;6.40;;
35612;SDS011;22054;51.646;7.078;2022-07-26T11:05:29;6.30;;;5.80;;
35612;SDS011;22054;51.646;7.078;2022-07-26T11:08:03;6.53;;;5.72;;
35612;SDS011;22054;51.646;7.078;2022-07-26T11:13:09;8.85;;;5.70;;
35612;SDS011;22054;51.646;7.078;2022-07-26T11:15:38;6.00;;;4.90;;
35612;SDS011;22054;51.646;7.078;2022-07-26T11:18:11;4.82;;;4.40;;
35612;SDS011;22054;51.646;7.078;2022-07-26T11:20:54;5.10;;;4.80;;
35612;SDS011;22054;51.646;7.078;2022-07-26T11:23:23;5.30;;;4.80;;
35612;SDS011;22054;51.646;7.078;2022-07-26T11:29:05;6.03;;;5.00;;
35612;SDS011;22054;51.646;7.078;2022-07-26T11:31:41;5.40;;;5.10;;
35612;SDS011;22054;51.646;7.078;2022-07-26T11:34:22;5.60;;;5.00;;
35612;SDS011;22054;51.646;7.078;2022-07-26T11:36:51;5.57;;;5.18;;
35612;SDS011;22054;51.646;7.078;2022-07-26T11:41:48;5.28;;;4.88;;
35612;SDS011;22054;51.646;7.078;2022-07-26T11:44:18;5.10;;;4.70;;
35612;SDS011;22054;51.646;7.078;2022-07-26T11:46:46;6.32;;;5.13;;
35612;SDS011;22054;51.646;7.078;2022-07-26T11:51:39;4.85;;;4.65;;
35612;SDS011;22054;51.646;7.078;2022-07-26T11:54:13;5.53;;;5.20;;
35612;SDS011;22054;51.646;7.078;2022-07-26T11:56:38;5.88;;;5.47;;
35612;SDS011;22054;51.646;7.078;2022-07-26T11:59:13;6.07;;;5.68;;
35612;SDS011;22054;51.646;7.078;2022-07-26T12:01:39;5.95;;;5.65;;
35612;SDS011;22054;51.646;7.078;2022-07-26T12:04:05;5.80;;;5.50;;
35612;SDS011;22054;51.646;7.078;2022-07-26T12:06:48;6.00;;;5.70;;
35612;SDS011;22054;51.646;7.078;2022-07-26T12:09:29;6.75;;;6.10;;
35612;SDS011;22054;51.646;7.078;2022-07-26T12:12:04;6.88;;;6.25;;
35612;SDS011;22054;51.646;7.078;2022-07-26T12:14:34;6.15;;;5.82;;
35612;SDS011;22054;51.646;7.078;2022-07-26T12:17:13;6.78;;;6.20;;
35612;SDS011;22054;51.646;7.078;2022-07-26T12:19:41;6.90;;;5.50;;
35612;SDS011;22054;51.646;7.078;2022-07-26T12:22:10;6.13;;;5.53;;
35612;SDS011;22054;51.646;7.078;2022-07-26T12:27:25;6.30;;;5.90;;
35612;SDS011;22054;51.646;7.078;2022-07-26T12:32:32;7.20;;;5.72;;
35612;SDS011;22054;51.646;7.078;2022-07-26T12:35:05;6.15;;;5.85;;
35612;SDS011;22054;51.646;7.078;2022-07-26T12:40:17;6.30;;;5.90;;
35612;SDS011;22054;51.646;7.078;2022-07-26T12:45:15;6.18;;;5.80;;
35612;SDS011;22054;51.646;7.078;2022-07-26T12:47:44;5.90;;;5.60;;
35612;SDS011;22054;51.646;7.078;2022-07-26T12:50:12;6.63;;;6.22;;
35612;SDS011;22054;51.646;7.078;2022-07-26T12:52:40;6.50;;;6.10;;
35612;SDS011;22054;51.646;7.078;2022-07-26T12:55:07;6.47;;;6.10;;
35612;SDS011;22054;51.646;7.078;2022-07-26T12:57:38;6.68;;;6.30;;
35612;SDS011;22054;51.646;7.078;2022-07-26T13:00:04;6.70;;;6.15;;
35612;SDS011;22054;51.646;7.078;2022-07-26T13:02:32;6.38;;;6.07;;
35612;SDS011;22054;51.646;7.078;2022-07-26T13:04:59;6.68;;;6.18;;
35612;SDS011;22054;51.646;7.078;2022-07-26T13:07:25;6.47;;;6.10;;
35612;SDS011;22054;51.646;7.078;2022-07-26T13:09:51;6.60;;;6.20;;
35612;SDS011;22054;51.646;7.078;2022-07-26T13:12:17;6.47;;;6.10;;
35612;SDS011;22054;51.646;7.078;2022-07-26T13:14:43;6.70;;;6.20;;
35612;SDS011;22054;51.646;7.078;2022-07-26T13:17:09;6.63;;;6.22;;
35612;SDS011;22054;51.646;7.078;2022-07-26T13:19:35;6.35;;;5.80;;
35612;SDS011;22054;51.646;7.078;2022-07-26T13:22:02;6.45;;;5.90;;
35612;SDS011;22054;51.646;7.078;2022-07-26T13:24:29;6.38;;;5.97;;
35612;SDS011;22054;51.646;7.078;2022-07-26T13:26:56;5.60;;;5.20;;
35612;SDS011;22054;51.646;7.078;2022-07-26T13:29:23;5.50;;;5.20;;
35612;SDS011;22054;51.646;7.078;2022-07-26T13:31:49;5.57;;;5.13;;
35612;SDS011;22054;51.646;7.078;2022-07-26T13:34:16;6.28;;;5.60;;
35612;SDS011;22054;51.646;7.078;2022-07-26T13:36:42;6.22;;;5.80;;
35612;SDS011;22054;51.646;7.078;2022-07-26T13:39:08;6.32;;;5.75;;
35612;SDS011;22054;51.646;7.078;2022-07-26T13:41:34;4.72;;;4.43;;
35612;SDS011;22054;51.646;7.078;2022-07-26T13:44:00;5.20;;;4.85;;
35612;SDS011;22054;51.646;7.078;2022-07-26T13:46:26;5.88;;;5.47;;
35612;SDS011;22054;51.646;7.078;2022-07-26T13:48:55;6.95;;;5.43;;
35612;SDS011;22054;51.646;7.078;2022-07-26T13:51:22;6.80;;;6.40;;
35612;SDS011;22054;51.646;7.078;2022-07-26T13:54:10;8.32;;;7.82;;
35612;SDS011;22054;51.646;7.078;2022-07-26T13:56:41;6.90;;;6.50;;
35612;SDS011;22054;51.646;7.078;2022-07-26T13:59:08;6.07;;;5.20;;
35612;SDS011;22054;51.646;7.078;2022-07-26T14:01:34;6.80;;;5.47;;
35612;SDS011;22054;51.646;7.078;2022-07-26T14:04:03;5.93;;;5.53;;
35612;SDS011;22054;51.646;7.078;2022-07-26T14:06:31;5.82;;;5.47;;
35612;SDS011;22054;51.646;7.078;2022-07-26T14:08:57;6.10;;;5.70;;
35612;SDS011;22054;51.646;7.078;2022-07-26T14:11:24;6.10;;;5.50;;
35612;SDS011;22054;51.646;7.078;2022-07-26T14:13:51;5.45;;;5.05;;
35612;SDS011;22054;51.646;7.078;2022-07-26T14:16:17;5.40;;;5.00;;
35612;SDS011;22054;51.646;7.078;2022-07-26T14:18:43;5.63;;;5.20;;
35612;SDS011;22054;51.646;7.078;2022-07-26T14:21:09;5.38;;;4.88;;
35612;SDS011;22054;51.646;7.078;2022-07-26T14:23:35;6.13;;;5.32;;
35612;SDS011;22054;51.646;7.078;2022-07-26T14:26:01;5.38;;;5.07;;
35612;SDS011;22054;51.646;7.078;2022-07-26T14:28:26;5.72;;;5.18;;
35612;SDS011;22054;51.646;7.078;2022-07-26T14:30:52;5.68;;;5.18;;
35612;SDS011;22054;51.646;7.078;2022-07-26T14:33:18;6.00;;;5.22;;
35612;SDS011;22054;51.646;7.078;2022-07-26T14:35:43;5.97;;;5.53;;
35612;SDS011;22054;51.646;7.078;2022-07-26T14:38:10;5.65;;;5.25;;
35612;SDS011;22054;51.646;7.078;2022-07-26T14:40:36;5.20;;;4.97;;
35612;SDS011;22054;51.646;7.078;2022-07-26T14:43:02;5.60;;;5.20;;
35612;SDS011;22054;51.646;7.078;2022-07-26T14:45:28;5.43;;;5.00;;
35612;SDS011;22054;51.646;7.078;2022-07-26T14:47:54;5.63;;;5.13;;
35612;SDS011;22054;51.646;7.078;2022-07-26T14:50:20;5.68;;;5.30;;
35612;SDS011;22054;51.646;7.078;2022-07-26T14:52:53;5.32;;;5.03;;
35612;SDS011;22054;51.646;7.078;2022-07-26T14:55:19;5.90;;;5.60;;
35612;SDS011;22054;51.646;7.078;2022-07-26T14:57:45;5.70;;;5.30;;
35612;SDS011;22054;51.646;7.078;2022-07-26T15:00:12;7.28;;;5.80;;
35612;SDS011;22054;51.646;7.078;2022-07-26T15:02:41;6.07;;;5.68;;
35612;SDS011;22054;51.646;7.078;2022-07-26T15:07:37;5.88;;;5.30;;
35612;SDS011;22054;51.646;7.078;2022-07-26T15:10:04;5.55;;;4.88;;
35612;SDS011;22054;51.646;7.078;2022-07-26T15:12:32;5.88;;;4.80;;
35612;SDS011;22054;51.646;7.078;2022-07-26T15:14:58;4.90;;;4.60;;
35612;SDS011;22054;51.646;7.078;2022-07-26T15:17:24;5.20;;;4.90;;
35612;SDS011;22054;51.646;7.078;2022-07-26T15:19:49;5.18;;;4.70;;
35612;SDS011;22054;51.646;7.078;2022-07-26T15:22:15;5.05;;;4.75;;
35612;SDS011;22054;51.646;7.078;2022-07-26T15:24:41;6.20;;;5.18;;
35612;SDS011;22054;51.646;7.078;2022-07-26T15:27:07;5.80;;;5.30;;
35612;SDS011;22054;51.646;7.078;2022-07-26T15:29:33;5.80;;;5.40;;
35612;SDS011;22054;51.646;7.078;2022-07-26T15:32:02;6.47;;;5.53;;
35612;SDS011;22054;51.646;7.078;2022-07-26T15:34:30;6.32;;;5.82;;
35612;SDS011;22054;51.646;7.078;2022-07-26T15:36:56;6.45;;;5.97;;